sensor_id;sensor_type;location;lat;lon;timestamp;temperature;humidity
36416;DHT22;22447;44.530;18.620;2023-02-28T00:00:09;1.70;99.90
36416;DHT22;22447;44.530;18.620;2023-02-28T00:02:40;1.70;99.90
36416;DHT22;22447;44.530;18.620;2023-02-28T00:05:09;1.60;99.90
36416;DHT22;22447;44.530;18.620;2023-02-28T00:07:35;1.70;99.90
36416;DHT22;22447;44.530;18.620;2023-02-28T00:10:03;1.80;99.90
36416;DHT22;22447;44.530;18.620;2023-02-28T00:12:29;1.80;99.90
36416;DHT22;22447;44.530;18.620;2023-02-28T00:14:55;1.80;99.90
36416;DHT22;22447;44.530;18.620;2023-02-28T00:17:21;1.70;99.90
36416;DHT22;22447;44.530;18.620;2023-02-28T00:19:48;1.70;99.90
36416;DHT22;22447;44.530;18.620;2023-02-28T00:22:20;1.70;99.90
36416;DHT22;22447;44.530;18.620;2023-02-28T00:24:46;1.90;99.90
36416;DHT22;22447;44.530;18.620;2023-02-28T00:27:14;2.00;99.90
36416;DHT22;22447;44.530;18.620;2023-02-28T00:29:40;2.10;99.90
36416;DHT22;22447;44.530;18.620;2023-02-28T00:32:06;2.00;99.90
36416;DHT22;22447;44.530;18.620;2023-02-28T00:34:32;1.90;99.90
36416;DHT22;22447;44.530;18.620;2023-02-28T00:37:08;1.90;99.90
36416;DHT22;22447;44.530;18.620;2023-02-28T00:39:40;1.80;99.90
36416;DHT22;22447;44.530;18.620;2023-02-28T00:42:07;1.80;99.90
36416;DHT22;22447;44.530;18.620;2023-02-28T00:44:33;1.90;99.90
36416;DHT22;22447;44.530;18.620;2023-02-28T00:47:00;1.90;99.90
36416;DHT22;22447;44.530;18.620;2023-02-28T00:49:27;2.00;99.90
36416;DHT22;22447;44.530;18.620;2023-02-28T00:51:54;2.10;99.90
36416;DHT22;22447;44.530;18.620;2023-02-28T00:54:21;2.10;99.90
36416;DHT22;22447;44.530;18.620;2023-02-28T00:56:48;1.90;99.90
36416;DHT22;22447;44.530;18.620;2023-02-28T00:59:16;1.90;99.90
36416;DHT22;22447;44.530;18.620;2023-02-28T01:01:45;1.90;99.90
36416;DHT22;22447;44.530;18.620;2023-02-28T01:04:11;1.90;99.90
36416;DHT22;22447;44.530;18.620;2023-02-28T01:06:37;1.80;99.90
36416;DHT22;22447;44.530;18.620;2023-02-28T01:09:04;1.70;99.90
36416;DHT22;22447;44.530;18.620;2023-02-28T01:11:31;1.70;99.90
36416;DHT22;22447;44.530;18.620;2023-02-28T01:13:57;1.80;99.90
36416;DHT22;22447;44.530;18.620;2023-02-28T01:16:23;1.80;99.90
36416;DHT22;22447;44.530;18.620;2023-02-28T01:18:49;2.00;99.90
36416;DHT22;22447;44.530;18.620;2023-02-28T01:21:18;2.00;99.90
36416;DHT22;22447;44.530;18.620;2023-02-28T01:23:44;2.00;99.90
36416;DHT22;22447;44.530;18.620;2023-02-28T01:26:15;1.90;99.90
36416;DHT22;22447;44.530;18.620;2023-02-28T01:28:42;1.90;99.90
36416;DHT22;22447;44.530;18.620;2023-02-28T01:31:09;1.80;99.90
36416;DHT22;22447;44.530;18.620;2023-02-28T01:33:37;1.90;99.90
36416;DHT22;22447;44.530;18.620;2023-02-28T01:36:05;1.90;99.90
36416;DHT22;22447;44.530;18.620;2023-02-28T01:38:32;1.80;99.90
36416;DHT22;22447;44.530;18.620;2023-02-28T01:40:58;1.80;99.90
36416;DHT22;22447;44.530;18.620;2023-02-28T01:43:57;1.80;99.90
36416;DHT22;22447;44.530;18.620;2023-02-28T01:46:23;1.70;99.90
36416;DHT22;22447;44.530;18.620;2023-02-28T01:51:46;1.80;99.90
36416;DHT22;22447;44.530;18.620;2023-02-28T01:54:20;1.70;99.90
36416;DHT22;22447;44.530;18.620;2023-02-28T01:56:54;1.70;99.90
36416;DHT22;22447;44.530;18.620;2023-02-28T01:59:42;1.80;99.90
36416;DHT22;22447;44.530;18.620;2023-02-28T02:02:13;1.80;99.90
36416;DHT22;22447;44.530;18.620;2023-02-28T02:04:50;1.80;99.90
36416;DHT22;22447;44.530;18.620;2023-02-28T02:07:18;1.80;99.90
36416;DHT22;22447;44.530;18.620;2023-02-28T02:09:44;1.90;99.90
36416;DHT22;22447;44.530;18.620;2023-02-28T02:18:09;1.80;99.90
36416;DHT22;22447;44.530;18.620;2023-02-28T02:38:11;1.80;99.90
36416;DHT22;22447;44.530;18.620;2023-02-28T02:43:34;1.70;99.90
36416;DHT22;22447;44.530;18.620;2023-02-28T02:46:09;1.70;99.90
36416;DHT22;22447;44.530;18.620;2023-02-28T02:48:36;1.60;99.90
36416;DHT22;22447;44.530;18.620;2023-02-28T02:51:07;1.60;99.90
36416;DHT22;22447;44.530;18.620;2023-02-28T02:54:10;1.60;99.90
36416;DHT22;22447;44.530;18.620;2023-02-28T02:56:40;1.80;99.90
36416;DHT22;22447;44.530;18.620;2023-02-28T02:59:10;1.80;99.90
36416;DHT22;22447;44.530;18.620;2023-02-28T03:01:38;1.70;99.90
36416;DHT22;22447;44.530;18.620;2023-02-28T03:04:17;1.60;99.90
36416;DHT22;22447;44.530;18.620;2023-02-28T03:06:44;1.60;99.90
36416;DHT22;22447;44.530;18.620;2023-02-28T03:09:10;1.60;99.90
36416;DHT22;22447;44.530;18.620;2023-02-28T03:11:39;1.70;99.90
36416;DHT22;22447;44.530;18.620;2023-02-28T03:22:19;1.90;99.90
36416;DHT22;22447;44.530;18.620;2023-02-28T03:30:49;1.70;99.90
36416;DHT22;22447;44.530;18.620;2023-02-28T03:33:24;1.70;99.90
36416;DHT22;22447;44.530;18.620;2023-02-28T03:35:59;1.70;99.90
36416;DHT22;22447;44.530;18.620;2023-02-28T03:41:19;1.70;99.90
36416;DHT22;22447;44.530;18.620;2023-02-28T03:44:03;1.60;99.90
36416;DHT22;22447;44.530;18.620;2023-02-28T03:46:35;1.60;99.90
36416;DHT22;22447;44.530;18.620;2023-02-28T03:49:09;1.60;99.90
36416;DHT22;22447;44.530;18.620;2023-02-28T03:51:38;1.70;99.90
36416;DHT22;22447;44.530;18.620;2023-02-28T03:54:10;1.80;99.90
36416;DHT22;22447;44.530;18.620;2023-02-28T03:56:43;1.80;99.90
36416;DHT22;22447;44.530;18.620;2023-02-28T03:59:35;1.80;99.90
36416;DHT22;22447;44.530;18.620;2023-02-28T04:02:02;1.90;99.90
36416;DHT22;22447;44.530;18.620;2023-02-28T04:04:28;2.00;99.90
36416;DHT22;22447;44.530;18.620;2023-02-28T04:07:07;2.00;99.90
36416;DHT22;22447;44.530;18.620;2023-02-28T04:09:34;2.10;99.90
36416;DHT22;22447;44.530;18.620;2023-02-28T04:12:00;2.10;99.90
36416;DHT22;22447;44.530;18.620;2023-02-28T04:14:26;2.00;99.90
36416;DHT22;22447;44.530;18.620;2023-02-28T04:16:52;2.00;99.90
36416;DHT22;22447;44.530;18.620;2023-02-28T04:19:18;2.00;99.90
36416;DHT22;22447;44.530;18.620;2023-02-28T04:21:48;2.00;99.90
36416;DHT22;22447;44.530;18.620;2023-02-28T04:24:21;2.00;99.90
36416;DHT22;22447;44.530;18.620;2023-02-28T04:26:50;1.90;99.90
36416;DHT22;22447;44.530;18.620;2023-02-28T04:29:28;2.00;99.90
36416;DHT22;22447;44.530;18.620;2023-02-28T04:31:55;2.10;99.90
36416;DHT22;22447;44.530;18.620;2023-02-28T04:34:23;2.10;99.90
36416;DHT22;22447;44.530;18.620;2023-02-28T04:36:50;2.20;99.90
36416;DHT22;22447;44.530;18.620;2023-02-28T04:39:17;2.30;99.90
36416;DHT22;22447;44.530;18.620;2023-02-28T04:41:44;2.30;99.90
36416;DHT22;22447;44.530;18.620;2023-02-28T04:44:11;2.30;99.90
36416;DHT22;22447;44.530;18.620;2023-02-28T04:46:37;2.30;99.90
36416;DHT22;22447;44.530;18.620;2023-02-28T04:49:03;2.20;99.90
36416;DHT22;22447;44.530;18.620;2023-02-28T04:51:29;2.30;99.90
36416;DHT22;22447;44.530;18.620;2023-02-28T04:53:56;2.30;99.90
36416;DHT22;22447;44.530;18.620;2023-02-28T04:56:22;2.30;99.90
36416;DHT22;22447;44.530;18.620;2023-02-28T04:58:49;2.40;99.90
36416;DHT22;22447;44.530;18.620;2023-02-28T05:01:26;2.40;99.90
36416;DHT22;22447;44.530;18.620;2023-02-28T05:03:54;2.30;99.90
36416;DHT22;22447;44.530;18.620;2023-02-28T05:06:22;2.30;99.90
36416;DHT22;22447;44.530;18.620;2023-02-28T05:08:49;2.20;99.90
36416;DHT22;22447;44.530;18.620;2023-02-28T05:11:24;2.30;99.90
36416;DHT22;22447;44.530;18.620;2023-02-28T05:13:52;2.30;99.90
36416;DHT22;22447;44.530;18.620;2023-02-28T05:16:18;2.40;99.90
36416;DHT22;22447;44.530;18.620;2023-02-28T05:18:45;2.30;99.90
36416;DHT22;22447;44.530;18.620;2023-02-28T05:21:29;2.40;99.90
36416;DHT22;22447;44.530;18.620;2023-02-28T05:23:57;2.40;99.90
36416;DHT22;22447;44.530;18.620;2023-02-28T05:26:24;2.30;99.90
36416;DHT22;22447;44.530;18.620;2023-02-28T05:28:50;2.30;99.90
36416;DHT22;22447;44.530;18.620;2023-02-28T05:31:16;2.40;99.90
36416;DHT22;22447;44.530;18.620;2023-02-28T05:33:42;2.40;99.90
36416;DHT22;22447;44.530;18.620;2023-02-28T05:36:08;2.40;99.90
36416;DHT22;22447;44.530;18.620;2023-02-28T05:38:34;2.30;99.90
36416;DHT22;22447;44.530;18.620;2023-02-28T05:41:05;2.30;99.90
36416;DHT22;22447;44.530;18.620;2023-02-28T05:43:31;2.30;99.90
36416;DHT22;22447;44.530;18.620;2023-02-28T05:45:57;2.40;99.90
36416;DHT22;22447;44.530;18.620;2023-02-28T05:48:23;2.40;99.90
36416;DHT22;22447;44.530;18.620;2023-02-28T05:50:49;2.40;99.90
36416;DHT22;22447;44.530;18.620;2023-02-28T05:53:15;2.40;99.90
36416;DHT22;22447;44.530;18.620;2023-02-28T05:55:41;2.30;99.90
36416;DHT22;22447;44.530;18.620;2023-02-28T05:58:07;2.30;99.90
36416;DHT22;22447;44.530;18.620;2023-02-28T06:00:33;2.30;99.90
36416;DHT22;22447;44.530;18.620;2023-02-28T06:02:58;2.30;99.90
36416;DHT22;22447;44.530;18.620;2023-02-28T06:05:27;2.30;99.90
36416;DHT22;22447;44.530;18.620;2023-02-28T06:07:53;2.30;99.90
36416;DHT22;22447;44.530;18.620;2023-02-28T06:10:19;2.20;99.90
36416;DHT22;22447;44.530;18.620;2023-02-28T06:12:45;2.20;99.90
36416;DHT22;22447;44.530;18.620;2023-02-28T06:15:14;2.10;99.90
36416;DHT22;22447;44.530;18.620;2023-02-28T06:17:42;2.10;99.90
36416;DHT22;22447;44.530;18.620;2023-02-28T06:20:10;2.20;99.90
36416;DHT22;22447;44.530;18.620;2023-02-28T06:22:40;2.20;99.90
36416;DHT22;22447;44.530;18.620;2023-02-28T06:25:06;2.10;99.90
36416;DHT22;22447;44.530;18.620;2023-02-28T06:27:33;2.00;99.90
36416;DHT22;22447;44.530;18.620;2023-02-28T06:29:59;2.20;99.90
36416;DHT22;22447;44.530;18.620;2023-02-28T06:32:25;2.20;99.90
36416;DHT22;22447;44.530;18.620;2023-02-28T06:34:51;2.20;99.90
36416;DHT22;22447;44.530;18.620;2023-02-28T06:37:18;2.30;99.90
36416;DHT22;22447;44.530;18.620;2023-02-28T06:39:44;2.30;99.90
36416;DHT22;22447;44.530;18.620;2023-02-28T06:42:10;2.30;99.90
36416;DHT22;22447;44.530;18.620;2023-02-28T06:44:36;2.30;99.90
36416;DHT22;22447;44.530;18.620;2023-02-28T06:47:05;2.30;99.90
36416;DHT22;22447;44.530;18.620;2023-02-28T06:49:33;2.20;99.90
36416;DHT22;22447;44.530;18.620;2023-02-28T06:51:59;2.20;99.90
36416;DHT22;22447;44.530;18.620;2023-02-28T06:54:25;2.30;99.90
36416;DHT22;22447;44.530;18.620;2023-02-28T06:56:51;2.40;99.90
36416;DHT22;22447;44.530;18.620;2023-02-28T06:59:19;2.50;99.90
36416;DHT22;22447;44.530;18.620;2023-02-28T07:01:45;2.50;99.90
36416;DHT22;22447;44.530;18.620;2023-02-28T07:04:11;2.50;99.90
36416;DHT22;22447;44.530;18.620;2023-02-28T07:06:38;2.60;99.90
36416;DHT22;22447;44.530;18.620;2023-02-28T07:09:04;2.60;99.90
36416;DHT22;22447;44.530;18.620;2023-02-28T07:11:31;2.80;99.90
36416;DHT22;22447;44.530;18.620;2023-02-28T07:13:57;2.90;99.90
36416;DHT22;22447;44.530;18.620;2023-02-28T07:16:24;3.00;99.90
36416;DHT22;22447;44.530;18.620;2023-02-28T07:18:55;3.10;99.90
36416;DHT22;22447;44.530;18.620;2023-02-28T07:21:22;3.30;99.90
36416;DHT22;22447;44.530;18.620;2023-02-28T07:23:48;3.20;99.90
36416;DHT22;22447;44.530;18.620;2023-02-28T07:26:16;3.20;99.90
36416;DHT22;22447;44.530;18.620;2023-02-28T07:28:47;3.00;99.90
36416;DHT22;22447;44.530;18.620;2023-02-28T07:31:14;3.50;99.90
36416;DHT22;22447;44.530;18.620;2023-02-28T07:33:40;3.40;99.90
36416;DHT22;22447;44.530;18.620;2023-02-28T07:36:13;3.50;99.90
36416;DHT22;22447;44.530;18.620;2023-02-28T07:38:45;3.70;99.90
36416;DHT22;22447;44.530;18.620;2023-02-28T07:41:21;4.00;99.90
36416;DHT22;22447;44.530;18.620;2023-02-28T07:43:50;4.30;99.90
36416;DHT22;22447;44.530;18.620;2023-02-28T07:46:18;4.60;99.90
36416;DHT22;22447;44.530;18.620;2023-02-28T07:48:55;4.60;99.90
36416;DHT22;22447;44.530;18.620;2023-02-28T07:51:25;4.80;99.90
36416;DHT22;22447;44.530;18.620;2023-02-28T07:53:51;4.80;99.90
36416;DHT22;22447;44.530;18.620;2023-02-28T07:56:17;4.90;99.90
36416;DHT22;22447;44.530;18.620;2023-02-28T07:58:43;4.80;99.90
36416;DHT22;22447;44.530;18.620;2023-02-28T08:01:10;4.70;99.90
36416;DHT22;22447;44.530;18.620;2023-02-28T08:03:37;4.70;99.90
36416;DHT22;22447;44.530;18.620;2023-02-28T08:06:04;4.70;99.90
36416;DHT22;22447;44.530;18.620;2023-02-28T08:08:31;4.80;99.90
36416;DHT22;22447;44.530;18.620;2023-02-28T08:11:03;4.40;99.90
36416;DHT22;22447;44.530;18.620;2023-02-28T08:13:30;4.50;99.90
36416;DHT22;22447;44.530;18.620;2023-02-28T08:15:56;4.70;99.90
36416;DHT22;22447;44.530;18.620;2023-02-28T08:18:22;4.40;99.90
36416;DHT22;22447;44.530;18.620;2023-02-28T08:20:49;4.50;99.90
36416;DHT22;22447;44.530;18.620;2023-02-28T08:23:14;4.50;99.90
36416;DHT22;22447;44.530;18.620;2023-02-28T08:25:40;4.60;99.90
36416;DHT22;22447;44.530;18.620;2023-02-28T08:28:06;4.50;99.90
36416;DHT22;22447;44.530;18.620;2023-02-28T08:30:32;4.60;99.90
36416;DHT22;22447;44.530;18.620;2023-02-28T08:32:58;4.60;99.90
36416;DHT22;22447;44.530;18.620;2023-02-28T08:35:24;4.60;99.90
36416;DHT22;22447;44.530;18.620;2023-02-28T08:37:51;4.50;99.90
36416;DHT22;22447;44.530;18.620;2023-02-28T08:40:17;4.50;99.90
36416;DHT22;22447;44.530;18.620;2023-02-28T08:42:45;4.70;99.90
36416;DHT22;22447;44.530;18.620;2023-02-28T08:45:12;5.00;99.90
36416;DHT22;22447;44.530;18.620;2023-02-28T08:47:41;5.00;99.90
36416;DHT22;22447;44.530;18.620;2023-02-28T08:50:07;5.00;99.90
36416;DHT22;22447;44.530;18.620;2023-02-28T08:52:33;5.10;99.90
36416;DHT22;22447;44.530;18.620;2023-02-28T08:54:59;4.90;99.90
36416;DHT22;22447;44.530;18.620;2023-02-28T08:57:28;4.50;99.90
36416;DHT22;22447;44.530;18.620;2023-02-28T08:59:54;4.50;99.90
36416;DHT22;22447;44.530;18.620;2023-02-28T09:02:20;4.60;99.90
36416;DHT22;22447;44.530;18.620;2023-02-28T09:04:46;4.60;99.90
36416;DHT22;22447;44.530;18.620;2023-02-28T09:07:12;4.60;99.90
36416;DHT22;22447;44.530;18.620;2023-02-28T09:09:38;4.30;99.90
36416;DHT22;22447;44.530;18.620;2023-02-28T09:12:22;4.30;99.90
36416;DHT22;22447;44.530;18.620;2023-02-28T09:14:48;4.40;99.90
36416;DHT22;22447;44.530;18.620;2023-02-28T09:17:14;4.40;99.90
36416;DHT22;22447;44.530;18.620;2023-02-28T09:19:41;4.50;99.90
36416;DHT22;22447;44.530;18.620;2023-02-28T09:22:06;4.40;99.90
36416;DHT22;22447;44.530;18.620;2023-02-28T09:24:32;4.40;99.90
36416;DHT22;22447;44.530;18.620;2023-02-28T09:26:58;4.50;99.90
36416;DHT22;22447;44.530;18.620;2023-02-28T09:29:24;4.50;99.90
36416;DHT22;22447;44.530;18.620;2023-02-28T09:31:50;4.60;99.90
36416;DHT22;22447;44.530;18.620;2023-02-28T09:34:16;4.80;99.90
36416;DHT22;22447;44.530;18.620;2023-02-28T09:36:43;5.30;99.90
36416;DHT22;22447;44.530;18.620;2023-02-28T09:39:11;5.60;99.90
36416;DHT22;22447;44.530;18.620;2023-02-28T09:41:43;5.80;99.90
36416;DHT22;22447;44.530;18.620;2023-02-28T09:44:41;5.80;99.90
36416;DHT22;22447;44.530;18.620;2023-02-28T09:47:36;6.10;99.90
36416;DHT22;22447;44.530;18.620;2023-02-28T09:52:53;6.00;99.90
36416;DHT22;22447;44.530;18.620;2023-02-28T09:57:52;6.30;99.90
36416;DHT22;22447;44.530;18.620;2023-02-28T10:00:39;6.10;99.90
36416;DHT22;22447;44.530;18.620;2023-02-28T10:08:29;6.00;99.90
36416;DHT22;22447;44.530;18.620;2023-02-28T10:10:58;6.30;99.90
36416;DHT22;22447;44.530;18.620;2023-02-28T10:16:06;6.30;99.90
36416;DHT22;22447;44.530;18.620;2023-02-28T10:18:47;6.30;99.90
36416;DHT22;22447;44.530;18.620;2023-02-28T10:21:20;5.80;99.90
36416;DHT22;22447;44.530;18.620;2023-02-28T10:23:48;6.20;99.90
36416;DHT22;22447;44.530;18.620;2023-02-28T10:26:17;6.30;99.90
36416;DHT22;22447;44.530;18.620;2023-02-28T10:28:43;5.90;99.90
36416;DHT22;22447;44.530;18.620;2023-02-28T10:31:18;6.10;99.90
36416;DHT22;22447;44.530;18.620;2023-02-28T10:33:45;6.30;99.90
36416;DHT22;22447;44.530;18.620;2023-02-28T10:36:17;6.10;99.90
36416;DHT22;22447;44.530;18.620;2023-02-28T10:38:45;6.10;99.90
36416;DHT22;22447;44.530;18.620;2023-02-28T10:41:14;6.00;99.90
36416;DHT22;22447;44.530;18.620;2023-02-28T10:43:42;6.20;99.90
36416;DHT22;22447;44.530;18.620;2023-02-28T10:48:43;6.20;99.90
36416;DHT22;22447;44.530;18.620;2023-02-28T10:51:12;6.30;99.90
36416;DHT22;22447;44.530;18.620;2023-02-28T10:53:51;6.10;99.90
36416;DHT22;22447;44.530;18.620;2023-02-28T10:56:21;6.30;99.90
36416;DHT22;22447;44.530;18.620;2023-02-28T11:07:21;6.40;99.90
36416;DHT22;22447;44.530;18.620;2023-02-28T11:09:50;6.40;99.90
36416;DHT22;22447;44.530;18.620;2023-02-28T11:12:26;6.70;99.90
36416;DHT22;22447;44.530;18.620;2023-02-28T11:15:19;6.70;99.90
36416;DHT22;22447;44.530;18.620;2023-02-28T11:18:02;7.00;99.90
36416;DHT22;22447;44.530;18.620;2023-02-28T11:20:33;6.70;99.90
36416;DHT22;22447;44.530;18.620;2023-02-28T11:23:04;6.50;99.90
36416;DHT22;22447;44.530;18.620;2023-02-28T11:25:32;6.40;99.90
36416;DHT22;22447;44.530;18.620;2023-02-28T11:28:02;6.40;99.90
36416;DHT22;22447;44.530;18.620;2023-02-28T11:30:39;6.30;99.90
36416;DHT22;22447;44.530;18.620;2023-02-28T11:36:28;6.20;99.90
36416;DHT22;22447;44.530;18.620;2023-02-28T11:39:07;5.70;99.90
36416;DHT22;22447;44.530;18.620;2023-02-28T11:47:42;5.20;99.90
36416;DHT22;22447;44.530;18.620;2023-02-28T11:53:00;5.10;99.90
36416;DHT22;22447;44.530;18.620;2023-02-28T11:55:32;5.20;99.90
36416;DHT22;22447;44.530;18.620;2023-02-28T12:00:50;5.20;99.90
36416;DHT22;22447;44.530;18.620;2023-02-28T12:03:45;5.50;99.90
36416;DHT22;22447;44.530;18.620;2023-02-28T12:06:22;5.30;99.90
36416;DHT22;22447;44.530;18.620;2023-02-28T12:09:03;5.30;99.90
36416;DHT22;22447;44.530;18.620;2023-02-28T12:27:27;5.20;99.90
36416;DHT22;22447;44.530;18.620;2023-02-28T12:30:13;5.30;99.90
36416;DHT22;22447;44.530;18.620;2023-02-28T12:32:45;5.20;99.90
36416;DHT22;22447;44.530;18.620;2023-02-28T12:35:16;5.10;99.90
36416;DHT22;22447;44.530;18.620;2023-02-28T12:38:10;5.30;99.90
36416;DHT22;22447;44.530;18.620;2023-02-28T12:40:54;5.10;99.90
36416;DHT22;22447;44.530;18.620;2023-02-28T12:43:27;5.30;99.90
36416;DHT22;22447;44.530;18.620;2023-02-28T12:46:23;5.30;99.90
36416;DHT22;22447;44.530;18.620;2023-02-28T12:49:06;5.40;99.90
36416;DHT22;22447;44.530;18.620;2023-02-28T12:51:34;5.30;99.90
36416;DHT22;22447;44.530;18.620;2023-02-28T12:54:26;5.40;99.90
36416;DHT22;22447;44.530;18.620;2023-02-28T12:57:15;5.20;99.90
36416;DHT22;22447;44.530;18.620;2023-02-28T12:59:54;5.30;99.90
36416;DHT22;22447;44.530;18.620;2023-02-28T13:08:12;4.80;99.90
36416;DHT22;22447;44.530;18.620;2023-02-28T13:10:49;4.60;99.90
36416;DHT22;22447;44.530;18.620;2023-02-28T13:13:24;4.70;99.90
36416;DHT22;22447;44.530;18.620;2023-02-28T13:16:04;4.70;99.90
36416;DHT22;22447;44.530;18.620;2023-02-28T13:18:45;4.90;99.90
36416;DHT22;22447;44.530;18.620;2023-02-28T13:21:29;4.60;99.90
36416;DHT22;22447;44.530;18.620;2023-02-28T13:24:00;4.50;99.90
36416;DHT22;22447;44.530;18.620;2023-02-28T13:29:20;4.50;99.90
36416;DHT22;22447;44.530;18.620;2023-02-28T13:34:39;4.80;99.90
36416;DHT22;22447;44.530;18.620;2023-02-28T13:42:36;4.50;99.90
36416;DHT22;22447;44.530;18.620;2023-02-28T13:47:39;4.50;99.90
36416;DHT22;22447;44.530;18.620;2023-02-28T13:50:39;4.50;99.90
36416;DHT22;22447;44.530;18.620;2023-02-28T13:55:55;4.30;99.90
36416;DHT22;22447;44.530;18.620;2023-02-28T13:58:43;4.40;99.90
36416;DHT22;22447;44.530;18.620;2023-02-28T14:06:37;4.50;99.90
36416;DHT22;22447;44.530;18.620;2023-02-28T14:09:21;4.50;99.90
36416;DHT22;22447;44.530;18.620;2023-02-28T14:11:49;4.50;99.90
36416;DHT22;22447;44.530;18.620;2023-02-28T14:17:05;4.10;99.90
36416;DHT22;22447;44.530;18.620;2023-02-28T14:19:34;4.30;99.90
36416;DHT22;22447;44.530;18.620;2023-02-28T14:28:27;4.20;99.90
36416;DHT22;22447;44.530;18.620;2023-02-28T14:31:18;4.30;99.90
36416;DHT22;22447;44.530;18.620;2023-02-28T14:34:05;4.10;99.90
36416;DHT22;22447;44.530;18.620;2023-02-28T14:36:41;4.10;99.90
36416;DHT22;22447;44.530;18.620;2023-02-28T14:39:14;4.20;99.90
36416;DHT22;22447;44.530;18.620;2023-02-28T14:41:43;4.10;99.90
36416;DHT22;22447;44.530;18.620;2023-02-28T14:44:21;4.00;99.90
36416;DHT22;22447;44.530;18.620;2023-02-28T14:46:59;3.80;99.90
36416;DHT22;22447;44.530;18.620;2023-02-28T14:49:35;3.90;99.90
36416;DHT22;22447;44.530;18.620;2023-02-28T14:54:37;3.70;99.90
36416;DHT22;22447;44.530;18.620;2023-02-28T14:57:04;3.70;99.90
36416;DHT22;22447;44.530;18.620;2023-02-28T14:59:33;3.60;99.90
36416;DHT22;22447;44.530;18.620;2023-02-28T15:02:19;3.70;99.90
36416;DHT22;22447;44.530;18.620;2023-02-28T15:05:25;3.80;99.90
36416;DHT22;22447;44.530;18.620;2023-02-28T15:08:05;3.80;99.90
36416;DHT22;22447;44.530;18.620;2023-02-28T15:10:31;3.60;99.90
36416;DHT22;22447;44.530;18.620;2023-02-28T15:13:11;3.40;99.90
36416;DHT22;22447;44.530;18.620;2023-02-28T15:16:00;3.50;99.90
36416;DHT22;22447;44.530;18.620;2023-02-28T15:21:00;3.70;99.90
36416;DHT22;22447;44.530;18.620;2023-02-28T15:23:28;3.70;99.90
36416;DHT22;22447;44.530;18.620;2023-02-28T15:25:55;3.70;99.90
36416;DHT22;22447;44.530;18.620;2023-02-28T15:28:23;3.70;99.90
36416;DHT22;22447;44.530;18.620;2023-02-28T15:30:59;3.70;99.90
36416;DHT22;22447;44.530;18.620;2023-02-28T15:33:31;3.60;99.90
36416;DHT22;22447;44.530;18.620;2023-02-28T15:36:09;3.70;99.90
36416;DHT22;22447;44.530;18.620;2023-02-28T15:38:36;3.70;99.90
36416;DHT22;22447;44.530;18.620;2023-02-28T15:41:02;3.70;99.90
36416;DHT22;22447;44.530;18.620;2023-02-28T15:43:38;3.60;99.90
36416;DHT22;22447;44.530;18.620;2023-02-28T15:46:10;3.70;99.90
36416;DHT22;22447;44.530;18.620;2023-02-28T15:48:45;3.60;99.90
36416;DHT22;22447;44.530;18.620;2023-02-28T15:51:18;3.50;99.90
36416;DHT22;22447;44.530;18.620;2023-02-28T15:53:50;3.50;99.90
36416;DHT22;22447;44.530;18.620;2023-02-28T15:56:26;3.60;99.90
36416;DHT22;22447;44.530;18.620;2023-02-28T15:59:01;3.60;99.90
36416;DHT22;22447;44.530;18.620;2023-02-28T16:01:30;3.50;99.90
36416;DHT22;22447;44.530;18.620;2023-02-28T16:04:01;3.40;99.90
36416;DHT22;22447;44.530;18.620;2023-02-28T16:06:35;3.30;99.90
36416;DHT22;22447;44.530;18.620;2023-02-28T16:09:02;3.30;99.90
36416;DHT22;22447;44.530;18.620;2023-02-28T16:11:29;3.30;99.90
36416;DHT22;22447;44.530;18.620;2023-02-28T16:13:57;3.40;99.90
36416;DHT22;22447;44.530;18.620;2023-02-28T16:16:24;3.40;99.90
36416;DHT22;22447;44.530;18.620;2023-02-28T16:18:52;3.30;99.90
36416;DHT22;22447;44.530;18.620;2023-02-28T16:21:18;3.30;99.90
36416;DHT22;22447;44.530;18.620;2023-02-28T16:23:44;3.30;99.90
36416;DHT22;22447;44.530;18.620;2023-02-28T16:26:20;3.20;99.90
36416;DHT22;22447;44.530;18.620;2023-02-28T16:28:47;3.10;99.90
36416;DHT22;22447;44.530;18.620;2023-02-28T16:31:13;3.10;99.90
36416;DHT22;22447;44.530;18.620;2023-02-28T16:33:43;3.10;99.90
36416;DHT22;22447;44.530;18.620;2023-02-28T16:36:18;3.00;99.90
36416;DHT22;22447;44.530;18.620;2023-02-28T16:38:44;2.90;99.90
36416;DHT22;22447;44.530;18.620;2023-02-28T16:41:22;2.70;99.90
36416;DHT22;22447;44.530;18.620;2023-02-28T16:43:53;2.60;99.90
36416;DHT22;22447;44.530;18.620;2023-02-28T16:46:20;2.50;99.90
36416;DHT22;22447;44.530;18.620;2023-02-28T16:48:47;2.50;99.90
36416;DHT22;22447;44.530;18.620;2023-02-28T16:51:17;2.50;99.90
36416;DHT22;22447;44.530;18.620;2023-02-28T16:53:44;2.60;99.90
36416;DHT22;22447;44.530;18.620;2023-02-28T16:56:22;2.60;99.90
36416;DHT22;22447;44.530;18.620;2023-02-28T16:58:50;2.70;99.90
36416;DHT22;22447;44.530;18.620;2023-02-28T17:01:20;2.70;99.90
36416;DHT22;22447;44.530;18.620;2023-02-28T17:03:52;2.70;99.90
36416;DHT22;22447;44.530;18.620;2023-02-28T17:06:24;2.50;99.90
36416;DHT22;22447;44.530;18.620;2023-02-28T17:08:51;2.50;99.90
36416;DHT22;22447;44.530;18.620;2023-02-28T17:11:18;2.60;99.90
36416;DHT22;22447;44.530;18.620;2023-02-28T17:13:44;2.50;99.90
36416;DHT22;22447;44.530;18.620;2023-02-28T17:16:20;2.60;99.90
36416;DHT22;22447;44.530;18.620;2023-02-28T17:18:48;2.60;99.90
36416;DHT22;22447;44.530;18.620;2023-02-28T17:21:17;2.50;99.90
36416;DHT22;22447;44.530;18.620;2023-02-28T17:23:43;2.60;99.90
36416;DHT22;22447;44.530;18.620;2023-02-28T17:26:17;2.60;99.90
36416;DHT22;22447;44.530;18.620;2023-02-28T17:28:49;2.70;99.90
36416;DHT22;22447;44.530;18.620;2023-02-28T17:31:17;2.70;99.90
36416;DHT22;22447;44.530;18.620;2023-02-28T17:33:43;2.80;99.90
36416;DHT22;22447;44.530;18.620;2023-02-28T17:36:20;2.80;99.90
36416;DHT22;22447;44.530;18.620;2023-02-28T17:38:48;2.60;99.90
36416;DHT22;22447;44.530;18.620;2023-02-28T17:41:14;2.50;99.90
36416;DHT22;22447;44.530;18.620;2023-02-28T17:43:40;2.50;99.90
36416;DHT22;22447;44.530;18.620;2023-02-28T17:46:16;2.60;99.90
36416;DHT22;22447;44.530;18.620;2023-02-28T17:48:44;2.60;99.90
36416;DHT22;22447;44.530;18.620;2023-02-28T17:51:13;2.60;99.90
36416;DHT22;22447;44.530;18.620;2023-02-28T17:53:39;2.50;99.90
36416;DHT22;22447;44.530;18.620;2023-02-28T17:56:05;2.40;99.90
36416;DHT22;22447;44.530;18.620;2023-02-28T17:58:31;2.50;99.90
36416;DHT22;22447;44.530;18.620;2023-02-28T18:00:57;2.70;99.90
36416;DHT22;22447;44.530;18.620;2023-02-28T18:03:23;2.80;99.90
36416;DHT22;22447;44.530;18.620;2023-02-28T18:05:50;2.70;99.90
36416;DHT22;22447;44.530;18.620;2023-02-28T18:08:16;2.70;99.90
36416;DHT22;22447;44.530;18.620;2023-02-28T18:10:42;2.70;99.90
36416;DHT22;22447;44.530;18.620;2023-02-28T18:13:08;2.80;99.90